Time;durP1;ratioP1;P1;durP2;ratioP2;P2;SDS_P1;SDS_P2;PMS_P1;PMS_P2;Temp;Humidity;BMP_temperature;BMP_pressure;BME280_temperature;BME280_humidity;BME280_pressure;Samples;Min_cycle;Max_cycle;Signal;HPM_P1;HPM_P2
2022/10/14 00:00:07;;;;;;;17.20;9.30;;;21.30;54.50;;;;;;5107723;28;20463;-79
2022/10/14 00:02:35;;;;;;;11.20;9.10;;;21.30;54.40;;;;;;5100151;28;20472;-80
2022/10/14 00:05:05;;;;;;;11.43;9.57;;;21.40;54.60;;;;;;5103747;28;20460;-81
2022/10/14 00:07:33;;;;;;;10.93;9.07;;;21.40;54.40;;;;;;5107523;28;20459;-80
2022/10/14 00:10:01;;;;;;;9.60;8.10;;;21.30;54.30;;;;;;5108078;28;20432;-80
2022/10/14 00:12:29;;;;;;;12.53;9.40;;;21.30;54.40;;;;;;5109108;28;20700;-81
2022/10/14 00:14:57;;;;;;;13.67;10.70;;;21.30;54.30;;;;;;5106798;28;20448;-80
2022/10/14 00:17:25;;;;;;;14.00;10.20;;;21.30;54.30;;;;;;5101387;28;20480;-81
2022/10/14 00:19:53;;;;;;;12.37;9.90;;;21.30;54.40;;;;;;5107134;28;20541;-81
2022/10/14 00:22:23;;;;;;;14.60;10.17;;;21.30;54.40;;;;;;5088018;28;20469;-81
2022/10/14 00:24:51;;;;;;;11.93;9.80;;;21.30;54.50;;;;;;5087981;28;20452;-81
2022/10/14 00:27:19;;;;;;;14.27;10.50;;;21.30;54.40;;;;;;5106511;28;20444;-81
2022/10/14 00:29:47;;;;;;;14.13;10.00;;;21.30;54.50;;;;;;5110066;28;20451;-80
2022/10/14 00:32:16;;;;;;;13.57;9.80;;;21.30;54.40;;;;;;5100348;28;20464;-81
2022/10/14 00:34:44;;;;;;;13.50;10.07;;;21.30;54.30;;;;;;5106234;28;20449;-80
2022/10/14 00:37:12;;;;;;;12.83;9.47;;;21.30;54.50;;;;;;5108407;28;20464;-82
2022/10/14 00:39:42;;;;;;;12.10;9.73;;;21.30;54.40;;;;;;5109716;28;20448;-81
2022/10/14 00:42:11;;;;;;;13.27;9.90;;;21.30;55.10;;;;;;5100195;28;20455;-80
2022/10/14 00:45:00;;;;;;;10.87;8.63;;;21.30;54.40;;;;;;5107373;28;20435;-81
2022/10/14 00:47:28;;;;;;;11.70;9.47;;;21.30;54.20;;;;;;5108720;28;20433;-80
2022/10/14 00:49:56;;;;;;;13.70;9.93;;;21.30;54.20;;;;;;5102991;28;20451;-79
2022/10/14 00:52:25;;;;;;;9.97;8.60;;;21.30;54.50;;;;;;5100577;28;20451;-78
2022/10/14 00:54:56;;;;;;;13.40;9.50;;;21.30;54.50;;;;;;5097812;28;20460;-80
2022/10/14 00:57:25;;;;;;;12.23;8.90;;;21.30;54.50;;;;;;5103197;28;20468;-80
2022/10/14 00:59:53;;;;;;;10.77;8.87;;;21.30;54.50;;;;;;5105350;28;20477;-80
2022/10/14 01:02:22;;;;;;;11.27;8.00;;;21.30;54.70;;;;;;5104333;28;20469;-79
2022/10/14 01:04:49;;;;;;;11.53;9.77;;;21.30;54.50;;;;;;5097766;28;20449;-81
2022/10/14 01:07:23;;;;;;;12.47;9.40;;;21.20;54.50;;;;;;5105552;28;20494;-81
2022/10/14 01:09:57;;;;;;;15.90;8.10;;;21.30;54.60;;;;;;5106991;28;20448;-79
2022/10/14 01:12:31;;;;;;;10.43;8.17;;;21.30;55.10;;;;;;5104454;28;20451;-80
2022/10/14 01:15:03;;;;;;;11.83;8.70;;;21.30;54.60;;;;;;5097215;28;20483;-80
2022/10/14 01:17:36;;;;;;;15.80;8.30;;;21.30;54.60;;;;;;5106565;28;20476;-80
2022/10/14 01:20:26;;;;;;;9.50;8.30;;;21.30;54.40;;;;;;5099376;28;20510;-80
2022/10/14 01:22:58;;;;;;;11.93;8.87;;;21.30;54.50;;;;;;5099802;28;20472;-79
2022/10/14 01:25:29;;;;;;;13.70;8.53;;;21.30;54.60;;;;;;5112317;28;20425;-80
2022/10/14 01:28:14;;;;;;;13.43;7.90;;;21.30;54.50;;;;;;5106482;28;20420;-79
2022/10/14 01:30:44;;;;;;;10.43;8.23;;;21.30;54.40;;;;;;5100961;28;20448;-79
2022/10/14 01:33:13;;;;;;;10.13;8.17;;;21.30;54.60;;;;;;5105977;28;20468;-79
2022/10/14 01:35:50;;;;;;;12.97;8.73;;;21.20;54.50;;;;;;5104558;28;20452;-79
2022/10/14 01:38:19;;;;;;;10.80;7.60;;;21.30;54.60;;;;;;5106007;28;20383;-79
2022/10/14 01:40:50;;;;;;;9.70;7.73;;;21.20;54.50;;;;;;5108163;28;20458;-79
2022/10/14 01:43:18;;;;;;;9.33;8.07;;;21.30;54.60;;;;;;5097484;28;20448;-80
2022/10/14 01:45:48;;;;;;;9.70;7.70;;;21.30;54.60;;;;;;5107998;28;20463;-79
2022/10/14 01:48:17;;;;;;;10.40;8.17;;;21.30;54.60;;;;;;5107709;28;20532;-80
2022/10/14 01:50:45;;;;;;;10.07;7.37;;;21.30;54.60;;;;;;5106819;28;20463;-79
2022/10/14 01:53:15;;;;;;;8.93;8.03;;;21.20;54.50;;;;;;5107130;28;20884;-80
2022/10/14 01:55:44;;;;;;;10.30;7.47;;;21.20;54.50;;;;;;5111625;28;20466;-80
2022/10/14 01:58:12;;;;;;;10.87;7.57;;;21.20;54.40;;;;;;5107132;28;20472;-80
2022/10/14 02:00:40;;;;;;;11.03;8.10;;;21.20;54.40;;;;;;5105718;28;20449;-81
2022/10/14 02:03:11;;;;;;;10.27;7.23;;;21.20;54.60;;;;;;5101601;28;20562;-81
2022/10/14 02:05:41;;;;;;;11.10;7.63;;;21.20;54.40;;;;;;5100096;28;20543;-81
2022/10/14 02:08:11;;;;;;;9.60;7.10;;;21.20;54.50;;;;;;5108048;28;20456;-82
2022/10/14 02:10:48;;;;;;;11.20;6.93;;;21.20;54.50;;;;;;5104410;28;20438;-81
2022/10/14 02:13:23;;;;;;;9.87;7.07;;;21.20;54.50;;;;;;5107746;28;20459;-81
2022/10/14 02:15:57;;;;;;;8.90;7.20;;;21.20;54.60;;;;;;5094881;28;20452;-80
2022/10/14 02:18:30;;;;;;;9.90;7.47;;;21.20;54.60;;;;;;5108940;28;20469;-80
2022/10/14 02:21:00;;;;;;;7.07;6.37;;;21.20;54.50;;;;;;5098709;28;20448;-80
2022/10/14 02:23:30;;;;;;;7.73;6.30;;;21.20;54.60;;;;;;5106424;28;20587;-81
2022/10/14 02:25:58;;;;;;;8.20;6.97;;;21.20;54.60;;;;;;5110451;28;20435;-81
2022/10/14 02:28:27;;;;;;;8.00;7.00;;;21.20;54.50;;;;;;5106281;28;20428;-81
2022/10/14 02:30:57;;;;;;;8.27;6.73;;;21.20;54.50;;;;;;5105360;28;20441;-81
2022/10/14 02:33:29;;;;;;;7.73;6.50;;;21.20;54.40;;;;;;5106703;28;20517;-81
2022/10/14 02:35:57;;;;;;;9.37;6.90;;;21.20;54.60;;;;;;5106695;28;20531;-81
2022/10/14 02:38:25;;;;;;;17.13;6.77;;;21.20;54.50;;;;;;5108152;28;20469;-82
2022/10/14 02:40:54;;;;;;;8.53;6.97;;;21.20;54.60;;;;;;5108437;28;20461;-81
2022/10/14 02:43:22;;;;;;;7.40;6.60;;;21.20;54.60;;;;;;5105814;28;20459;-81
2022/10/14 02:45:53;;;;;;;7.57;6.87;;;21.20;54.60;;;;;;5105232;28;20533;-82
2022/10/14 02:48:21;;;;;;;7.27;6.57;;;21.20;54.70;;;;;;5103039;28;20456;-80
2022/10/14 02:50:51;;;;;;;7.63;6.83;;;21.20;54.50;;;;;;5110057;28;20457;-80
2022/10/14 02:53:19;;;;;;;8.47;7.07;;;21.20;54.70;;;;;;5109398;28;20431;-81
2022/10/14 02:55:47;;;;;;;6.37;5.77;;;21.20;54.70;;;;;;5109482;28;20461;-80
2022/10/14 02:58:15;;;;;;;7.03;6.33;;;21.20;54.60;;;;;;5109807;28;20458;-81
2022/10/14 03:00:43;;;;;;;7.63;6.00;;;21.20;54.60;;;;;;5105689;28;20460;-81
2022/10/14 03:03:11;;;;;;;8.53;6.40;;;21.10;54.60;;;;;;5108202;28;20443;-81
2022/10/14 03:05:39;;;;;;;7.80;6.90;;;21.10;54.60;;;;;;5100052;28;20448;-81
2022/10/14 03:08:09;;;;;;;8.17;6.20;;;21.20;54.70;;;;;;5106384;28;20447;-81
2022/10/14 03:10:37;;;;;;;6.63;5.90;;;21.10;54.70;;;;;;5106011;28;20451;-81
2022/10/14 03:13:05;;;;;;;7.50;6.70;;;21.10;54.70;;;;;;5109925;28;20464;-80
2022/10/14 03:15:33;;;;;;;8.70;6.90;;;21.10;54.60;;;;;;5099116;28;20462;-80
2022/10/14 03:18:01;;;;;;;7.23;6.53;;;21.10;54.60;;;;;;5104899;28;20464;-81
2022/10/14 03:20:29;;;;;;;7.07;6.40;;;21.10;54.70;;;;;;5106428;28;20455;-80
2022/10/14 03:22:57;;;;;;;7.77;6.20;;;21.10;54.70;;;;;;5105171;28;20448;-81
2022/10/14 03:25:27;;;;;;;9.90;6.87;;;21.10;54.70;;;;;;5109028;28;20449;-81
2022/10/14 03:27:55;;;;;;;8.50;6.90;;;21.10;54.60;;;;;;5107395;28;20520;-81
2022/10/14 03:30:23;;;;;;;8.57;6.67;;;21.10;54.80;;;;;;5107225;28;20449;-82
2022/10/14 03:32:52;;;;;;;7.33;6.23;;;21.10;54.70;;;;;;5102247;28;20561;-82
2022/10/14 03:35:20;;;;;;;7.60;6.80;;;21.10;54.80;;;;;;5104640;28;20441;-81
2022/10/14 03:37:48;;;;;;;8.07;6.23;;;21.10;54.80;;;;;;5105728;28;20476;-81
2022/10/14 03:40:16;;;;;;;9.63;6.73;;;21.10;54.70;;;;;;5106686;28;20459;-81
2022/10/14 03:42:46;;;;;;;8.10;7.00;;;21.10;54.80;;;;;;5105309;28;20472;-82
2022/10/14 03:45:14;;;;;;;9.77;7.10;;;21.10;54.80;;;;;;5108258;28;20500;-81
2022/10/14 03:47:42;;;;;;;8.43;6.50;;;21.10;54.80;;;;;;5104820;28;20426;-81
2022/10/14 03:50:10;;;;;;;7.00;6.30;;;21.10;54.80;;;;;;5107426;28;20501;-81
2022/10/14 03:52:39;;;;;;;7.00;6.30;;;21.10;54.90;;;;;;5105153;28;20477;-81
2022/10/14 03:55:13;;;;;;;8.90;6.83;;;21.10;54.80;;;;;;5103704;28;20456;-81
2022/10/14 03:57:41;;;;;;;7.20;6.47;;;21.10;54.90;;;;;;5098177;28;20476;-81
2022/10/14 04:00:12;;;;;;;9.60;7.17;;;21.10;54.80;;;;;;5104771;28;20466;-80
2022/10/14 04:02:40;;;;;;;8.10;6.67;;;21.10;54.80;;;;;;5103682;28;20480;-81
2022/10/14 04:05:09;;;;;;;8.20;6.50;;;21.10;54.80;;;;;;5104547;28;20453;-80
2022/10/14 04:07:37;;;;;;;7.43;6.73;;;21.10;54.90;;;;;;5092971;28;20454;-80
2022/10/14 04:10:06;;;;;;;7.40;6.60;;;21.10;54.80;;;;;;5103445;28;20455;-80
2022/10/14 04:12:34;;;;;;;7.00;6.30;;;21.10;54.80;;;;;;5103660;28;20480;-81
2022/10/14 04:15:02;;;;;;;8.33;6.03;;;21.00;54.80;;;;;;5103692;28;20456;-81
2022/10/14 04:17:32;;;;;;;7.97;6.73;;;21.10;54.80;;;;;;5101615;28;20461;-81
2022/10/14 04:20:00;;;;;;;7.13;6.43;;;21.00;54.90;;;;;;5098697;28;20449;-80
2022/10/14 04:22:28;;;;;;;7.80;6.80;;;21.10;54.90;;;;;;5105498;28;20563;-80
2022/10/14 04:24:57;;;;;;;6.93;6.30;;;21.00;54.80;;;;;;5104822;28;20453;-80
2022/10/14 04:27:25;;;;;;;6.90;6.20;;;21.00;54.90;;;;;;5103029;28;20713;-80
2022/10/14 04:29:53;;;;;;;6.90;6.20;;;21.00;54.80;;;;;;5101493;28;20871;-82
2022/10/14 04:32:20;;;;;;;7.97;6.40;;;21.10;54.90;;;;;;5101530;28;20519;-81
2022/10/14 04:34:50;;;;;;;6.37;5.77;;;21.00;54.80;;;;;;5103666;28;20473;-81
2022/10/14 04:37:18;;;;;;;7.43;6.70;;;21.00;54.80;;;;;;5103153;28;20457;-81
2022/10/14 04:39:46;;;;;;;7.40;6.07;;;21.00;54.80;;;;;;5102078;28;20465;-80
2022/10/14 04:42:14;;;;;;;7.60;6.37;;;21.00;54.90;;;;;;5103661;28;20447;-80
2022/10/14 04:44:42;;;;;;;6.40;5.80;;;21.00;55.50;;;;;;5091875;28;20468;-80
2022/10/14 04:47:11;;;;;;;6.97;6.27;;;21.00;54.90;;;;;;5099025;28;20510;-81
2022/10/14 04:49:39;;;;;;;6.73;6.10;;;21.00;54.90;;;;;;5098389;28;20427;-81
2022/10/14 04:52:08;;;;;;;6.63;5.93;;;21.00;55.00;;;;;;5098166;28;20475;-81
2022/10/14 04:54:36;;;;;;;7.30;6.20;;;21.10;55.00;;;;;;5093601;28;20471;-80
2022/10/14 04:57:04;;;;;;;6.93;6.20;;;21.10;55.00;;;;;;5089203;28;20455;-81
2022/10/14 04:59:33;;;;;;;8.03;6.07;;;21.00;54.90;;;;;;5100961;28;20476;-81
2022/10/14 05:02:00;;;;;;;6.60;5.90;;;21.00;54.90;;;;;;5083920;28;20471;-81
2022/10/14 05:04:29;;;;;;;6.97;6.27;;;21.00;54.90;;;;;;5098594;28;20455;-81
2022/10/14 05:06:57;;;;;;;7.57;6.87;;;21.00;54.90;;;;;;5100963;28;20474;-81
2022/10/14 05:09:27;;;;;;;8.90;6.23;;;21.00;54.90;;;;;;5100310;28;20455;-81
2022/10/14 05:11:54;;;;;;;6.00;5.40;;;21.00;55.00;;;;;;5104492;28;20471;-81
2022/10/14 05:14:23;;;;;;;6.43;5.73;;;21.00;55.00;;;;;;5108213;28;20452;-81
2022/10/14 05:16:51;;;;;;;7.27;6.30;;;21.00;55.00;;;;;;5105591;28;20455;-80
2022/10/14 05:19:19;;;;;;;7.77;6.97;;;21.00;55.00;;;;;;5107386;28;20512;-81
2022/10/14 05:21:47;;;;;;;7.90;6.57;;;21.00;55.00;;;;;;5091812;28;20476;-81
2022/10/14 05:24:15;;;;;;;7.13;6.43;;;21.00;54.90;;;;;;5103946;28;20460;-81
2022/10/14 05:26:45;;;;;;;6.30;5.73;;;21.00;54.90;;;;;;5105699;28;20440;-80
2022/10/14 05:29:13;;;;;;;7.20;6.00;;;21.00;55.10;;;;;;5106720;28;20451;-81
2022/10/14 05:31:41;;;;;;;8.27;6.70;;;21.00;55.00;;;;;;5106097;28;20473;-81
2022/10/14 05:34:09;;;;;;;10.33;6.20;;;21.00;55.10;;;;;;5098086;28;20497;-81
2022/10/14 05:36:38;;;;;;;6.63;6.03;;;21.00;54.90;;;;;;5104185;28;20433;-81
2022/10/14 05:39:07;;;;;;;6.30;5.60;;;21.00;55.10;;;;;;5097695;28;20468;-81
2022/10/14 05:41:35;;;;;;;6.23;5.60;;;21.00;55.10;;;;;;5107265;28;20460;-82
2022/10/14 05:44:09;;;;;;;7.50;6.03;;;21.00;55.00;;;;;;5104019;28;20456;-80
2022/10/14 05:46:37;;;;;;;6.63;5.93;;;21.00;55.10;;;;;;5101728;28;20441;-81
2022/10/14 05:49:06;;;;;;;7.13;5.90;;;20.90;55.00;;;;;;5098292;28;20445;-80
2022/10/14 05:51:34;;;;;;;6.80;5.67;;;20.90;55.00;;;;;;5106853;28;20531;-80
2022/10/14 05:54:02;;;;;;;6.57;5.90;;;21.00;55.10;;;;;;5105623;28;20536;-81
2022/10/14 05:56:30;;;;;;;7.00;6.30;;;21.00;55.10;;;;;;5103920;28;20459;-81
2022/10/14 05:58:58;;;;;;;5.80;5.30;;;21.00;55.00;;;;;;5093374;28;20477;-80
2022/10/14 06:01:27;;;;;;;6.17;5.57;;;21.00;55.00;;;;;;5091091;28;20469;-80
2022/10/14 06:03:56;;;;;;;7.83;5.97;;;21.00;55.00;;;;;;5104509;28;20453;-80
2022/10/14 06:06:24;;;;;;;6.03;5.53;;;20.90;55.00;;;;;;5105088;28;20453;-81
2022/10/14 06:08:56;;;;;;;6.57;5.80;;;20.90;55.00;;;;;;5105090;28;20440;-81
2022/10/14 06:11:24;;;;;;;7.50;6.00;;;20.90;55.00;;;;;;5107557;28;20442;-81
2022/10/14 06:13:52;;;;;;;5.80;5.27;;;20.90;55.00;;;;;;5102962;28;20464;-80
2022/10/14 06:16:20;;;;;;;5.57;5.07;;;20.90;55.00;;;;;;5095541;28;20513;-81
2022/10/14 06:18:50;;;;;;;6.20;5.60;;;20.90;55.00;;;;;;5096484;28;20551;-81
2022/10/14 06:21:21;;;;;;;5.60;5.10;;;20.90;55.00;;;;;;5104460;28;21045;-80
2022/10/14 06:23:49;;;;;;;5.57;5.10;;;20.90;55.00;;;;;;5104471;28;20468;-80
2022/10/14 06:26:17;;;;;;;6.20;5.60;;;20.90;55.00;;;;;;5109262;28;20546;-81
2022/10/14 06:28:46;;;;;;;7.10;5.57;;;21.00;55.00;;;;;;5098413;28;20432;-81
2022/10/14 06:31:14;;;;;;;6.57;5.27;;;21.00;55.00;;;;;;5103752;28;20456;-80
2022/10/14 06:33:42;;;;;;;5.73;5.23;;;21.00;55.00;;;;;;5105023;28;20456;-81
2022/10/14 06:36:12;;;;;;;5.70;5.20;;;21.00;55.00;;;;;;5108726;28;20459;-82
2022/10/14 06:38:40;;;;;;;5.77;5.27;;;21.00;54.90;;;;;;5109485;28;20437;-81
2022/10/14 06:41:09;;;;;;;5.73;5.23;;;20.90;54.80;;;;;;5105677;28;20455;-82
2022/10/14 06:43:37;;;;;;;6.17;5.60;;;20.90;55.10;;;;;;5107602;28;20448;-82
2022/10/14 06:46:05;;;;;;;8.10;5.83;;;21.00;55.00;;;;;;5103765;28;20452;-81
2022/10/14 06:48:34;;;;;;;5.57;5.13;;;21.00;55.10;;;;;;5093267;28;20424;-82
2022/10/14 06:51:02;;;;;;;5.17;4.77;;;21.00;54.90;;;;;;5107576;28;20445;-81
2022/10/14 06:53:32;;;;;;;5.83;5.10;;;21.00;55.00;;;;;;5104788;28;20449;-81
2022/10/14 06:56:00;;;;;;;5.87;5.30;;;21.00;54.90;;;;;;5100372;28;20452;-82
2022/10/14 06:58:28;;;;;;;6.93;5.03;;;21.00;54.80;;;;;;5102640;28;20463;-81
2022/10/14 07:01:00;;;;;;;5.00;4.57;;;21.00;54.90;;;;;;5108053;28;20465;-80
2022/10/14 07:03:28;;;;;;;6.10;5.57;;;21.00;54.80;;;;;;5115663;28;20503;-81
2022/10/14 07:05:56;;;;;;;5.30;4.90;;;21.00;54.80;;;;;;5130088;27;20448;-81
2022/10/14 07:08:24;;;;;;;5.60;5.10;;;21.10;54.90;;;;;;5125882;27;20448;-80
2022/10/14 07:10:54;;;;;;;5.80;5.30;;;21.10;54.80;;;;;;5110740;27;20438;-81
2022/10/14 07:13:22;;;;;;;5.60;5.10;;;21.10;54.80;;;;;;5088621;28;20420;-80
2022/10/14 07:15:51;;;;;;;5.57;5.07;;;21.10;54.60;;;;;;5100024;28;20453;-80
2022/10/14 07:18:19;;;;;;;5.90;5.40;;;21.10;54.70;;;;;;5108937;28;20471;-81
2022/10/14 07:20:47;;;;;;;7.40;5.20;;;21.10;54.80;;;;;;5107804;28;20475;-81
2022/10/14 07:23:15;;;;;;;5.87;5.37;;;21.20;54.70;;;;;;5109361;28;20468;-81
2022/10/14 07:25:43;;;;;;;6.23;5.63;;;21.20;54.80;;;;;;5109292;28;20508;-81
2022/10/14 07:28:12;;;;;;;6.03;5.43;;;21.20;54.70;;;;;;5097633;28;20531;-81
2022/10/14 07:30:40;;;;;;;6.47;5.17;;;21.30;54.60;;;;;;5088450;28;20429;-81
2022/10/14 07:33:08;;;;;;;5.63;5.10;;;21.30;54.60;;;;;;5092912;28;20480;-80
2022/10/14 07:35:37;;;;;;;7.57;5.60;;;21.30;54.60;;;;;;5108748;28;20451;-81
2022/10/14 07:38:05;;;;;;;5.73;5.23;;;21.30;54.50;;;;;;5108811;28;20443;-81
2022/10/14 07:40:34;;;;;;;5.83;5.30;;;21.40;54.50;;;;;;5107817;28;20439;-81
2022/10/14 07:43:02;;;;;;;6.10;5.50;;;21.40;54.60;;;;;;5108076;28;20471;-80
2022/10/14 07:45:34;;;;;;;5.80;5.20;;;21.40;54.60;;;;;;5092205;28;20453;-81
2022/10/14 07:48:02;;;;;;;6.33;5.60;;;21.40;54.60;;;;;;5086049;28;20999;-81
2022/10/14 07:50:31;;;;;;;5.40;4.90;;;21.40;54.50;;;;;;5093479;28;20444;-80
2022/10/14 07:52:59;;;;;;;5.97;5.47;;;21.40;54.50;;;;;;5098575;28;20452;-80
2022/10/14 07:55:28;;;;;;;7.33;5.33;;;21.40;54.40;;;;;;5105255;28;20478;-81
2022/10/14 07:57:56;;;;;;;6.47;5.87;;;21.50;54.50;;;;;;5099001;28;20456;-81
2022/10/14 08:00:24;;;;;;;6.20;5.27;;;21.50;54.30;;;;;;5102829;28;20460;-81
2022/10/14 08:02:55;;;;;;;5.50;5.00;;;21.50;54.40;;;;;;5089848;28;20476;-80
2022/10/14 08:05:22;;;;;;;5.47;4.97;;;21.50;54.30;;;;;;5100353;28;20438;-81
2022/10/14 08:08:05;;;;;;;6.03;5.10;;;21.50;54.40;;;;;;5098151;28;20417;-81
2022/10/14 08:10:34;;;;;;;6.50;5.50;;;21.50;54.40;;;;;;5102525;28;20410;-81
2022/10/14 08:13:01;;;;;;;5.33;4.93;;;21.60;54.50;;;;;;5083356;28;20432;-81
2022/10/14 08:15:33;;;;;;;5.00;4.57;;;21.70;54.50;;;;;;5099396;28;20449;-82
2022/10/14 08:18:02;;;;;;;5.30;4.90;;;21.80;54.40;;;;;;5090459;28;20424;-81
2022/10/14 08:20:31;;;;;;;5.30;4.83;;;21.90;54.20;;;;;;5099647;28;20472;-81
2022/10/14 08:22:59;;;;;;;5.60;5.10;;;22.00;54.00;;;;;;5103884;28;20563;-81
2022/10/14 08:25:26;;;;;;;5.13;4.73;;;22.00;53.90;;;;;;5105971;28;20453;-82
2022/10/14 08:27:56;;;;;;;5.83;5.33;;;22.10;53.90;;;;;;5110274;28;20494;-82
2022/10/14 08:30:24;;;;;;;6.13;5.13;;;22.30;53.70;;;;;;5104492;28;20432;-80
2022/10/14 08:32:52;;;;;;;6.00;5.23;;;22.30;53.60;;;;;;5110359;28;20502;-82
2022/10/14 08:35:22;;;;;;;6.00;5.50;;;22.40;53.40;;;;;;5112154;28;20400;-82
2022/10/14 08:37:56;;;;;;;5.53;5.03;;;22.50;53.10;;;;;;5100435;28;20461;-80
2022/10/14 08:40:25;;;;;;;5.33;4.90;;;22.60;53.40;;;;;;5107479;28;20460;-80
2022/10/14 08:42:55;;;;;;;5.70;5.20;;;22.70;53.00;;;;;;5107730;28;20471;-83
2022/10/14 08:45:27;;;;;;;6.07;5.50;;;22.70;53.10;;;;;;5106026;28;20453;-85
2022/10/14 08:47:55;;;;;;;6.10;5.50;;;22.80;53.10;;;;;;5114312;28;20465;-85
2022/10/14 08:50:28;;;;;;;5.70;5.20;;;22.80;53.10;;;;;;5114019;28;20475;-88
2022/10/14 08:52:59;;;;;;;6.50;5.90;;;22.80;53.10;;;;;;5114028;28;20420;-84
2022/10/14 08:55:30;;;;;;;6.03;5.43;;;22.90;53.20;;;;;;5113316;28;20429;-84
2022/10/14 08:58:00;;;;;;;5.53;5.00;;;23.00;53.40;;;;;;5113543;28;20448;-83
2022/10/14 09:00:29;;;;;;;5.53;5.03;;;23.00;52.90;;;;;;5113349;28;20439;-85
2022/10/14 09:02:58;;;;;;;6.30;5.70;;;23.10;53.00;;;;;;5114040;28;20471;-84
2022/10/14 09:05:28;;;;;;;6.77;5.53;;;23.10;53.20;;;;;;5114113;28;20433;-84
2022/10/14 09:07:56;;;;;;;8.10;5.93;;;23.20;53.00;;;;;;5113574;28;20403;-84
2022/10/14 09:10:27;;;;;;;6.73;5.40;;;23.40;53.60;;;;;;5113735;28;20447;-84
2022/10/14 09:12:55;;;;;;;6.40;5.30;;;23.70;53.40;;;;;;5113518;28;20463;-84
2022/10/14 09:15:26;;;;;;;4.93;4.53;;;24.10;53.50;;;;;;5113595;28;20429;-84
2022/10/14 09:17:59;;;;;;;6.00;5.50;;;24.50;53.10;;;;;;5110400;28;20439;-82
2022/10/14 09:20:29;;;;;;;6.17;5.10;;;24.70;52.70;;;;;;5109187;28;20468;-82
2022/10/14 09:23:06;;;;;;;6.53;5.40;;;24.90;52.40;;;;;;5111256;28;20462;-82
2022/10/14 09:25:34;;;;;;;5.80;5.30;;;25.00;52.10;;;;;;5107886;28;20493;-82
2022/10/14 09:28:03;;;;;;;5.23;4.73;;;24.90;52.00;;;;;;5104049;28;20412;-83
2022/10/14 09:30:33;;;;;;;8.07;5.13;;;24.90;52.40;;;;;;5109753;28;20425;-82
2022/10/14 09:33:02;;;;;;;5.63;5.17;;;25.20;52.60;;;;;;5100747;28;20431;-82
2022/10/14 09:35:33;;;;;;;8.70;5.17;;;25.40;52.80;;;;;;5102382;28;20423;-83
2022/10/14 09:38:01;;;;;;;7.50;4.80;;;25.70;52.10;;;;;;5102507;28;20431;-83
2022/10/14 09:40:30;;;;;;;6.97;5.27;;;25.90;52.00;;;;;;5102195;28;20420;-83
2022/10/14 09:42:59;;;;;;;7.33;5.53;;;26.10;51.70;;;;;;5102904;28;20518;-82
2022/10/14 09:45:28;;;;;;;6.37;5.60;;;26.40;51.60;;;;;;5106791;28;20415;-81
2022/10/14 09:47:58;;;;;;;6.90;6.30;;;26.60;51.20;;;;;;5106494;28;20426;-82
2022/10/14 09:50:29;;;;;;;6.60;5.50;;;26.80;51.20;;;;;;5103463;28;20444;-82
2022/10/14 09:53:01;;;;;;;6.10;5.50;;;27.00;50.90;;;;;;5105412;28;20446;-82
2022/10/14 09:55:30;;;;;;;6.23;5.53;;;27.10;50.80;;;;;;5108037;28;20448;-81
2022/10/14 09:58:03;;;;;;;5.60;5.10;;;27.20;50.40;;;;;;5114367;28;20441;-81
2022/10/14 10:00:32;;;;;;;7.20;5.70;;;27.20;50.40;;;;;;5113334;28;20456;-82
2022/10/14 10:02:59;;;;;;;7.07;5.53;;;27.30;50.40;;;;;;5112499;28;20415;-83
2022/10/14 10:05:29;;;;;;;7.07;6.37;;;27.20;50.40;;;;;;5111805;28;20467;-82
2022/10/14 10:08:09;;;;;;;6.27;5.67;;;27.10;50.40;;;;;;5111793;28;20447;-83
2022/10/14 10:10:38;;;;;;;6.80;5.97;;;26.90;50.50;;;;;;5112338;28;20440;-83
2022/10/14 10:13:15;;;;;;;7.27;6.03;;;26.70;50.70;;;;;;5111780;28;20431;-80
2022/10/14 10:15:50;;;;;;;8.77;6.57;;;26.60;50.90;;;;;;5112041;28;20399;-80
2022/10/14 10:18:18;;;;;;;6.37;5.63;;;26.40;51.00;;;;;;5112915;28;20478;-82
2022/10/14 10:20:46;;;;;;;6.77;6.17;;;26.30;51.10;;;;;;5112312;28;20482;-84
2022/10/14 10:23:24;;;;;;;7.20;6.27;;;26.20;51.30;;;;;;5112289;28;20465;-83
2022/10/14 10:25:53;;;;;;;8.70;6.80;;;26.10;51.60;;;;;;5111628;28;20510;-84
2022/10/14 10:28:30;;;;;;;7.33;6.53;;;26.00;51.60;;;;;;5111272;28;20499;-82
2022/10/14 10:31:03;;;;;;;7.10;6.40;;;25.90;51.60;;;;;;5111550;28;20441;-81
2022/10/14 10:33:34;;;;;;;7.83;6.77;;;25.90;51.70;;;;;;5110350;28;20422;-82
2022/10/14 10:36:21;;;;;;;9.03;7.17;;;26.00;51.70;;;;;;5109856;28;20441;-83
2022/10/14 10:38:58;;;;;;;8.50;6.60;;;26.20;51.80;;;;;;5109575;28;20433;-83
2022/10/14 10:41:49;;;;;;;7.47;6.67;;;26.20;51.20;;;;;;5106217;28;20450;-81
2022/10/14 10:44:31;;;;;;;7.50;6.30;;;26.20;51.20;;;;;;5106566;28;20436;-82
2022/10/14 10:47:19;;;;;;;9.40;6.87;;;26.20;51.20;;;;;;5106140;28;20518;-81
2022/10/14 10:49:59;;;;;;;8.60;6.47;;;26.00;51.00;;;;;;5105867;28;20531;-81
2022/10/14 10:52:32;;;;;;;7.33;6.20;;;25.90;51.20;;;;;;5109854;28;20463;-83
2022/10/14 10:55:04;;;;;;;9.07;6.67;;;25.80;51.30;;;;;;5111631;28;20464;-82
2022/10/14 10:57:40;;;;;;;7.67;6.97;;;25.70;51.50;;;;;;5109477;28;20422;-81
2022/10/14 11:00:12;;;;;;;7.20;6.60;;;25.60;51.60;;;;;;5107097;28;20511;-83
2022/10/14 11:02:55;;;;;;;6.77;6.07;;;25.60;51.70;;;;;;5111685;28;20448;-82
2022/10/14 11:05:39;;;;;;;9.30;6.63;;;25.60;51.60;;;;;;5109713;28;20516;-81
2022/10/14 11:14:04;;;;;;;7.20;6.50;;;25.90;51.00;;;;;;5095808;28;20440;-83
2022/10/14 11:16:35;;;;;;;8.20;7.03;;;26.00;50.70;;;;;;5112046;28;20421;-83
2022/10/14 11:19:06;;;;;;;7.40;6.70;;;25.90;50.60;;;;;;5112200;28;20404;-83
2022/10/14 11:21:42;;;;;;;11.40;6.93;;;25.90;50.80;;;;;;5112009;28;20449;-79
2022/10/14 11:24:12;;;;;;;7.30;6.60;;;25.70;50.90;;;;;;5112390;28;20443;-83
2022/10/14 11:26:49;;;;;;;8.43;7.53;;;25.60;51.10;;;;;;5112916;28;20420;-83
2022/10/14 11:29:47;;;;;;;7.50;6.80;;;25.50;51.20;;;;;;5112399;28;20440;-84
2022/10/14 11:32:20;;;;;;;7.23;6.50;;;25.40;51.40;;;;;;5107629;28;20436;-82
2022/10/14 11:34:52;;;;;;;7.73;7.03;;;25.40;51.40;;;;;;5112209;28;20404;-82
2022/10/14 11:37:26;;;;;;;8.73;7.43;;;25.30;51.50;;;;;;5113245;28;20475;-81
2022/10/14 11:39:55;;;;;;;11.27;7.60;;;25.20;51.40;;;;;;5112306;28;20427;-82
2022/10/14 11:42:37;;;;;;;8.00;7.20;;;25.20;51.60;;;;;;5112541;28;20469;-83
2022/10/14 11:45:27;;;;;;;7.90;7.10;;;25.20;51.60;;;;;;5113095;28;20481;-83
2022/10/14 11:47:58;;;;;;;7.97;7.17;;;25.10;51.80;;;;;;5113035;28;20421;-81
2022/10/14 11:50:28;;;;;;;7.53;6.73;;;25.00;51.80;;;;;;5113646;28;20460;-83
2022/10/14 11:52:59;;;;;;;9.33;7.40;;;25.00;51.70;;;;;;5112913;28;20487;-80
2022/10/14 11:55:28;;;;;;;7.50;6.80;;;25.00;52.00;;;;;;5105717;28;20510;-82
2022/10/14 11:57:59;;;;;;;8.37;7.60;;;25.00;52.00;;;;;;5102951;28;20462;-81
2022/10/14 12:00:29;;;;;;;7.97;7.27;;;25.00;51.80;;;;;;5103445;28;20450;-82
2022/10/14 12:03:02;;;;;;;8.77;7.77;;;25.10;51.80;;;;;;5109980;28;20443;-79
2022/10/14 12:05:35;;;;;;;9.00;7.67;;;25.10;52.20;;;;;;5112377;28;20472;-84
2022/10/14 12:08:08;;;;;;;9.27;7.50;;;25.10;51.60;;;;;;5110834;28;20451;-82
2022/10/14 12:10:38;;;;;;;8.40;7.60;;;25.10;51.70;;;;;;5110077;28;20423;-81
2022/10/14 12:13:12;;;;;;;8.20;7.50;;;25.20;51.60;;;;;;5110140;28;20475;-83
2022/10/14 12:15:40;;;;;;;8.43;7.67;;;25.40;51.60;;;;;;5110744;28;20439;-83
2022/10/14 12:18:09;;;;;;;8.10;7.30;;;25.50;51.20;;;;;;5112536;28;20448;-83
2022/10/14 12:20:39;;;;;;;9.20;7.60;;;25.70;51.10;;;;;;5112230;28;20416;-83
2022/10/14 12:23:08;;;;;;;9.33;7.60;;;25.70;50.60;;;;;;5111750;28;20542;-85
2022/10/14 12:25:41;;;;;;;9.70;7.47;;;25.70;50.70;;;;;;5112072;28;20429;-83
2022/10/14 12:28:19;;;;;;;8.43;7.57;;;25.70;50.30;;;;;;5113059;28;20441;-83
2022/10/14 12:30:47;;;;;;;7.77;7.07;;;25.60;50.50;;;;;;5111897;28;20415;-82
2022/10/14 12:33:16;;;;;;;8.50;7.70;;;25.50;50.50;;;;;;5110634;28;20434;-83
2022/10/14 12:35:59;;;;;;;9.70;7.90;;;25.50;50.70;;;;;;5112448;28;20460;-84
2022/10/14 12:38:28;;;;;;;8.70;7.20;;;25.40;50.70;;;;;;5111015;28;20419;-83
2022/10/14 12:41:32;;;;;;;7.63;6.93;;;25.30;51.00;;;;;;5112429;28;20425;-84
2022/10/14 12:44:02;;;;;;;8.83;7.63;;;25.30;51.00;;;;;;5111319;28;20540;-83
2022/10/14 12:46:30;;;;;;;8.23;7.43;;;25.10;51.20;;;;;;5112774;28;20504;-83
2022/10/14 12:48:59;;;;;;;8.73;7.80;;;25.10;51.40;;;;;;5112204;28;20476;-83
2022/10/14 12:51:30;;;;;;;10.00;9.00;;;25.00;51.40;;;;;;5113021;28;20449;-83
2022/10/14 12:54:05;;;;;;;9.23;8.33;;;24.90;51.50;;;;;;5111582;28;20422;-83
2022/10/14 12:56:40;;;;;;;8.13;7.40;;;24.80;51.60;;;;;;5111587;28;20478;-80
2022/10/14 12:59:21;;;;;;;8.57;7.73;;;24.80;51.70;;;;;;5110300;28;20448;-83
2022/10/14 13:01:58;;;;;;;8.13;7.30;;;24.70;51.80;;;;;;5110834;28;20485;-82
2022/10/14 13:04:26;;;;;;;8.87;7.87;;;24.70;51.80;;;;;;5106533;28;20465;-84
2022/10/14 13:07:37;;;;;;;8.37;7.57;;;24.60;52.00;;;;;;5112387;28;20411;-84